ドーハ の空港の天気 - METARとTAF

ドーハ国際空港 ( OTBD / DOH ) - カタール ドーハ
飛行場実況気象(Metar)
観測時間10/21 21:30 AST (10/21 18:30 UTC)
風向・風速北北西 4m/s
視程10km以上
天気現象
なし
気温28℃
湿度70%
気圧1012hPa
METAROTBD 211830Z AUTO 34007KT CAVOK 28/22 Q1012 NOSIG
過去の天気等 Google飛行場航空写真 Wunderground天気予報

過去48時間のMETAR

飛行場予報(TAF)
発表時間: 10/21 20:05 AST (10/21 17:05 UTC)
予報対象時間: 21日21時 AST ~ 23日3時 AST
風向・風速北北西 5m/s
視程10km以上
なし
22日2時 AST ~ 22日7時 AST に 確率 30% で一時的に
視程5000m
天気現象煙霧
22日13時 AST ~ 22日17時 AST に一時的に
風向・風速北東 6m/s
TAF OTBD 211705Z 2118/2224 33009KT CAVOK
PROB30 TEMPO 2123/2204 5000 HZ
TEMPO 2210/2214 04012KT